createdAt,value
2022-12-16T00:01:08.593Z,39.53
2022-12-16T00:03:35.978Z,36.42
2022-12-16T00:06:04.512Z,35.97
2022-12-16T00:08:36.182Z,38.35
2022-12-16T00:11:03.604Z,41.47
2022-12-16T00:13:32.236Z,36.58
2022-12-16T00:15:59.927Z,41.15
2022-12-16T00:18:26.386Z,34.70
2022-12-16T00:20:53.958Z,34.55
2022-12-16T00:23:22.110Z,39.40
2022-12-16T00:25:48.999Z,41.10
2022-12-16T00:28:17.345Z,40.47
2022-12-16T00:30:44.736Z,36.35
2022-12-16T00:33:11.332Z,41.88
2022-12-16T00:35:40.518Z,41.67
2022-12-16T00:38:10.858Z,39.13
2022-12-16T00:40:37.319Z,40.58
2022-12-16T00:43:03.911Z,36.22
2022-12-16T00:45:31.247Z,35.45
2022-12-16T00:47:57.957Z,39.17
2022-12-16T00:50:24.996Z,37.00
2022-12-16T00:52:51.819Z,46.17
2022-12-16T00:55:18.831Z,36.67
2022-12-16T00:57:45.738Z,35.08
2022-12-16T01:00:15.487Z,37.95
2022-12-16T01:02:43.601Z,34.42
2022-12-16T01:05:12.159Z,32.95
2022-12-16T01:07:38.951Z,26.65
2022-12-16T01:10:06.892Z,28.10
2022-12-16T01:12:35.402Z,27.40
2022-12-16T01:15:03.333Z,25.90
2022-12-16T01:17:29.778Z,25.90
2022-12-16T01:19:56.150Z,27.90
2022-12-16T01:22:22.666Z,28.42
2022-12-16T01:24:49.187Z,25.10
2022-12-16T01:27:16.468Z,24.48
2022-12-16T01:29:43.099Z,24.48
2022-12-16T01:32:12.565Z,23.92
2022-12-16T01:34:39.287Z,23.13
2022-12-16T01:37:06.988Z,22.38
2022-12-16T01:39:33.408Z,21.90
2022-12-16T01:41:59.883Z,25.42
2022-12-16T01:44:26.956Z,24.30
2022-12-16T01:47:00.624Z,23.67
2022-12-16T01:49:35.851Z,27.77
2022-12-16T01:52:07.658Z,26.13
2022-12-16T01:54:39.679Z,24.33
2022-12-16T01:57:12.158Z,21.17
2022-12-16T01:59:41.572Z,23.55
2022-12-16T02:02:08.235Z,23.33
2022-12-16T02:04:35.377Z,21.95
2022-12-16T02:07:01.933Z,21.35
2022-12-16T02:09:28.316Z,27.08
2022-12-16T02:12:12.778Z,24.10
2022-12-16T02:15:00.531Z,21.17
2022-12-16T02:17:44.054Z,23.38
2022-12-16T02:20:32.157Z,24.88
2022-12-16T02:23:23.504Z,20.40
2022-12-16T02:26:17.140Z,21.52
2022-12-16T02:29:17.426Z,23.25
2022-12-16T02:32:01.529Z,22.17
2022-12-16T02:34:44.874Z,21.67
2022-12-16T02:37:30.849Z,19.42
2022-12-16T02:42:31.804Z,21.02
2022-12-16T02:45:06.979Z,18.98
2022-12-16T02:47:33.317Z,23.05
2022-12-16T02:49:59.809Z,24.58
2022-12-16T02:52:30.294Z,28.27
2022-12-16T02:55:01.741Z,23.88
2022-12-16T02:57:48.364Z,24.20
2022-12-16T03:00:25.254Z,24.58
2022-12-16T03:03:02.040Z,22.10
2022-12-16T03:05:33.433Z,23.15
2022-12-16T03:08:07.575Z,22.38
2022-12-16T03:10:39.176Z,20.48
2022-12-16T03:13:08.574Z,23.67
2022-12-16T03:15:36.338Z,24.08
2022-12-16T03:18:06.012Z,21.13
2022-12-16T03:20:42.216Z,26.65
2022-12-16T03:23:15.435Z,20.10
2022-12-16T03:25:45.396Z,23.45
2022-12-16T03:28:39.752Z,22.48
2022-12-16T03:31:18.362Z,21.42
2022-12-16T03:34:04.570Z,23.50
2022-12-16T03:36:34.862Z,24.25
2022-12-16T03:39:02.943Z,23.15
2022-12-16T03:41:31.110Z,22.20
2022-12-16T03:43:57.482Z,25.15
2022-12-16T03:46:23.974Z,22.67
2022-12-16T03:48:51.475Z,21.98
2022-12-16T03:51:19.454Z,21.77
2022-12-16T03:53:46.691Z,23.65
2022-12-16T03:56:13.665Z,25.45
2022-12-16T03:58:40.422Z,22.83
2022-12-16T04:01:09.536Z,23.45
2022-12-16T04:03:37.240Z,24.55
2022-12-16T04:06:04.274Z,27.48
2022-12-16T04:08:30.618Z,24.73
2022-12-16T04:11:15.336Z,23.75
2022-12-16T04:14:00.222Z,25.00
2022-12-16T04:16:47.426Z,37.37
2022-12-16T04:19:44.538Z,27.33
2022-12-16T04:22:36.406Z,22.55
2022-12-16T04:25:09.055Z,27.25
2022-12-16T04:27:35.404Z,23.95
2022-12-16T04:30:19.892Z,27.67
2022-12-16T04:33:05.843Z,25.55
2022-12-16T04:35:51.112Z,20.25
2022-12-16T04:38:35.850Z,20.20
2022-12-16T04:41:20.666Z,23.67
2022-12-16T04:44:05.570Z,21.08
2022-12-16T04:46:50.524Z,22.10
2022-12-16T04:49:35.226Z,22.73
2022-12-16T04:52:20.133Z,25.08
2022-12-16T04:55:04.900Z,25.92
2022-12-16T04:57:49.566Z,26.33
2022-12-16T05:00:34.905Z,25.83
2022-12-16T05:03:19.675Z,24.55
2022-12-16T05:06:04.826Z,16.40
2022-12-16T05:08:50.040Z,29.05
2022-12-16T05:11:34.774Z,19.63
2022-12-16T05:14:19.523Z,26.15
2022-12-16T05:17:04.283Z,24.00
2022-12-16T05:19:49.034Z,28.33
2022-12-16T05:22:33.750Z,28.38
2022-12-16T05:25:18.928Z,24.63
2022-12-16T05:28:03.703Z,40.15
2022-12-16T05:30:48.643Z,31.70
2022-12-16T05:33:34.020Z,25.33
2022-12-16T05:36:19.379Z,26.27
2022-12-16T05:39:21.004Z,23.80
2022-12-16T05:42:06.137Z,24.30
2022-12-16T05:44:51.634Z,24.98
2022-12-16T05:47:36.396Z,24.50
2022-12-16T05:50:21.734Z,23.95
2022-12-16T05:53:11.619Z,24.80
2022-12-16T05:55:56.905Z,23.23
2022-12-16T05:58:42.637Z,21.98
2022-12-16T06:04:17.548Z,24.75
2022-12-16T06:07:03.559Z,25.98
2022-12-16T06:09:54.723Z,27.00
2022-12-16T06:12:41.585Z,27.00
2022-12-16T06:15:26.881Z,18.88
2022-12-16T06:18:11.730Z,29.45
2022-12-16T06:20:56.458Z,27.27
2022-12-16T06:23:41.345Z,25.87
2022-12-16T06:26:26.738Z,26.38
2022-12-16T06:29:12.100Z,28.17
2022-12-16T06:31:56.898Z,28.77
2022-12-16T06:34:41.880Z,28.90
2022-12-16T06:37:26.790Z,35.17
2022-12-16T06:40:11.441Z,29.80
2022-12-16T06:43:00.517Z,29.60
2022-12-16T06:45:46.311Z,35.35
2022-12-16T06:48:30.938Z,33.60
2022-12-16T06:51:15.744Z,33.58
2022-12-16T06:54:00.473Z,31.63
2022-12-16T06:56:45.368Z,32.75
2022-12-16T06:59:30.126Z,29.75
2022-12-16T07:02:15.071Z,29.07
2022-12-16T07:05:00.155Z,38.65
2022-12-16T07:07:44.914Z,30.17
2022-12-16T07:10:30.822Z,23.07
2022-12-16T07:13:17.958Z,28.88
2022-12-16T07:16:05.047Z,27.05
2022-12-16T07:18:59.525Z,26.88
2022-12-16T07:21:44.384Z,35.38
2022-12-16T07:24:29.127Z,34.60
2022-12-16T07:27:13.909Z,38.83
2022-12-16T07:29:58.630Z,33.40
2022-12-16T07:32:43.321Z,30.70
2022-12-16T07:35:27.962Z,26.77
2022-12-16T07:38:12.640Z,31.98
2022-12-16T07:40:58.016Z,27.85
2022-12-16T07:43:43.072Z,31.73
2022-12-16T07:46:28.111Z,34.25
2022-12-16T07:49:12.786Z,30.02
2022-12-16T07:51:57.640Z,32.95
2022-12-16T07:54:42.403Z,23.27
2022-12-16T07:57:27.679Z,30.93
2022-12-16T08:00:12.390Z,27.52
2022-12-16T08:02:57.297Z,37.73
2022-12-16T08:05:42.610Z,30.55
2022-12-16T08:08:27.379Z,33.35
2022-12-16T08:11:12.282Z,31.77
2022-12-16T08:13:57.078Z,30.85
2022-12-16T08:16:41.978Z,32.22
2022-12-16T08:19:26.669Z,30.38
2022-12-16T08:22:11.363Z,31.63
2022-12-16T08:24:56.254Z,31.45
2022-12-16T08:27:41.316Z,37.70
2022-12-16T08:30:27.322Z,32.78
2022-12-16T08:33:18.967Z,35.63
2022-12-16T08:36:05.344Z,39.05
2022-12-16T08:38:50.645Z,36.17
2022-12-16T08:41:35.994Z,31.27
2022-12-16T08:44:20.800Z,30.40
2022-12-16T08:47:10.012Z,30.67
2022-12-16T08:49:57.828Z,38.58
2022-12-16T08:52:46.711Z,35.40
2022-12-16T08:55:31.610Z,34.65
2022-12-16T08:58:16.384Z,32.03
2022-12-16T09:01:06.623Z,31.77
2022-12-16T09:03:52.269Z,41.10
2022-12-16T09:06:40.687Z,35.07
2022-12-16T09:09:26.607Z,33.85
2022-12-16T09:12:11.382Z,28.85
2022-12-16T09:14:56.190Z,34.53
2022-12-16T09:17:41.502Z,29.60
2022-12-16T09:20:26.753Z,35.35
2022-12-16T09:23:11.618Z,33.03
2022-12-16T09:25:56.438Z,25.77
2022-12-16T09:28:41.232Z,29.95
2022-12-16T09:31:25.989Z,35.85
2022-12-16T09:34:10.827Z,32.60
2022-12-16T09:36:55.590Z,31.02
2022-12-16T09:39:40.768Z,30.27
2022-12-16T09:43:04.008Z,34.33
2022-12-16T09:46:15.444Z,30.85
2022-12-16T09:49:20.207Z,31.30
2022-12-16T09:52:06.503Z,30.95
2022-12-16T09:54:54.858Z,30.45
2022-12-16T09:57:43.278Z,27.45
2022-12-16T10:00:40.678Z,26.65
2022-12-16T10:03:35.478Z,30.88
2022-12-16T10:06:50.382Z,27.55
2022-12-16T10:10:10.031Z,27.42
2022-12-16T10:13:27.056Z,29.13
2022-12-16T10:16:26.568Z,29.83
2022-12-16T10:19:25.695Z,29.17
2022-12-16T10:22:20.467Z,24.95
2022-12-16T10:25:25.232Z,27.27
2022-12-16T10:28:21.308Z,30.20
2022-12-16T10:31:06.768Z,27.33
2022-12-16T10:33:51.859Z,27.73
2022-12-16T10:36:41.138Z,27.00
2022-12-16T10:39:56.846Z,27.35
2022-12-16T10:42:41.613Z,28.48
2022-12-16T10:45:42.556Z,27.83
2022-12-16T10:48:29.503Z,30.05
2022-12-16T10:51:14.510Z,28.48
2022-12-16T10:53:59.397Z,26.17
2022-12-16T10:57:01.160Z,28.00
2022-12-16T10:59:55.070Z,26.58
2022-12-16T11:02:43.336Z,25.40
2022-12-16T11:05:47.140Z,27.00
2022-12-16T11:08:46.731Z,28.15
2022-12-16T11:11:54.093Z,27.48
2022-12-16T11:14:42.088Z,30.35
2022-12-16T11:17:45.246Z,27.10
2022-12-16T11:20:48.489Z,28.92
2022-12-16T11:23:43.996Z,27.10
2022-12-16T11:26:37.932Z,27.05
2022-12-16T11:29:36.964Z,23.45
2022-12-16T11:32:25.266Z,26.63
2022-12-16T11:35:14.755Z,30.50
2022-12-16T11:38:01.579Z,24.42
2022-12-16T11:40:49.146Z,25.88
2022-12-16T11:43:53.692Z,27.58
2022-12-16T11:46:47.058Z,29.23
2022-12-16T11:49:51.717Z,26.25
2022-12-16T11:52:40.677Z,28.38
2022-12-16T11:56:15.648Z,28.23
2022-12-16T11:59:08.468Z,28.42
2022-12-16T12:02:13.610Z,30.90
2022-12-16T12:04:58.695Z,28.83
2022-12-16T12:08:08.263Z,27.40
2022-12-16T12:11:08.873Z,26.25
2022-12-16T12:14:10.438Z,29.25
2022-12-16T12:17:10.846Z,29.25
2022-12-16T12:20:19.385Z,29.02
2022-12-16T12:23:05.247Z,29.13
2022-12-16T12:26:09.273Z,26.58
2022-12-16T12:29:03.765Z,32.22
2022-12-16T12:32:15.557Z,30.38
2022-12-16T12:35:59.175Z,31.15
2022-12-16T12:38:58.709Z,27.70
2022-12-16T12:41:47.164Z,26.85
2022-12-16T12:44:51.104Z,31.90
2022-12-16T12:47:38.396Z,29.13
2022-12-16T12:50:26.822Z,28.45
2022-12-16T12:53:42.571Z,29.63
2022-12-16T12:56:27.323Z,32.75
2022-12-16T12:59:18.019Z,32.90
2022-12-16T13:02:05.125Z,30.73
2022-12-16T13:04:51.749Z,30.85
2022-12-16T13:07:37.138Z,25.67
2022-12-16T13:10:44.078Z,28.55
2022-12-16T13:17:02.989Z,29.65
2022-12-16T13:19:47.848Z,28.05
2022-12-16T13:22:53.472Z,31.35
2022-12-16T13:26:10.457Z,32.20
2022-12-16T13:28:59.205Z,32.30
2022-12-16T13:31:46.691Z,30.23
2022-12-16T13:34:34.864Z,31.77
2022-12-16T13:37:28.451Z,33.95
2022-12-16T13:40:25.204Z,32.80
2022-12-16T13:43:12.588Z,34.13
2022-12-16T13:46:15.820Z,32.80
2022-12-16T13:49:01.597Z,32.47
2022-12-16T13:51:55.628Z,29.00
2022-12-16T13:55:10.433Z,32.20
2022-12-16T13:58:01.917Z,31.77
2022-12-16T14:00:48.400Z,36.78
2022-12-16T14:03:57.906Z,35.55
2022-12-16T14:06:46.153Z,34.55
2022-12-16T14:09:48.232Z,32.90
2022-12-16T14:12:49.215Z,31.38
2022-12-16T14:15:45.980Z,33.17
2022-12-16T14:19:13.081Z,35.38
2022-12-16T14:22:35.195Z,31.95
2022-12-16T14:25:33.257Z,34.58
2022-12-16T14:28:19.543Z,34.80
2022-12-16T14:31:24.367Z,35.35
2022-12-16T14:34:12.955Z,35.45
2022-12-16T14:36:58.812Z,40.80
2022-12-16T14:39:49.148Z,36.63
2022-12-16T14:42:38.144Z,35.35
2022-12-16T14:45:39.098Z,38.00
2022-12-16T14:48:44.459Z,38.70
2022-12-16T14:51:41.531Z,36.38
2022-12-16T14:54:45.927Z,42.53
2022-12-16T14:57:53.301Z,38.08
2022-12-16T15:00:41.061Z,40.65
2022-12-16T15:03:26.304Z,41.33
2022-12-16T15:06:12.248Z,31.60
2022-12-16T15:09:09.448Z,32.50
2022-12-16T15:11:55.210Z,37.40
2022-12-16T15:14:48.562Z,37.53
2022-12-16T15:18:00.496Z,32.35
2022-12-16T15:20:48.507Z,32.25
2022-12-16T15:23:44.107Z,35.92
2022-12-16T15:26:37.233Z,35.50
2022-12-16T15:29:22.432Z,40.03
2022-12-16T15:32:10.546Z,39.55
2022-12-16T15:35:05.906Z,41.72
2022-12-16T15:38:04.179Z,38.22
2022-12-16T15:40:51.820Z,44.50
2022-12-16T15:43:53.629Z,42.17
2022-12-16T15:46:43.448Z,36.28
2022-12-16T15:49:49.354Z,34.97
2022-12-16T15:52:43.470Z,43.60
2022-12-16T15:55:49.324Z,38.15
2022-12-16T15:58:47.324Z,38.70
2022-12-16T16:01:35.509Z,39.60
2022-12-16T16:04:20.839Z,39.22
2022-12-16T16:07:11.122Z,50.05
2022-12-16T16:09:58.404Z,62.83
2022-12-16T16:12:44.497Z,56.08
2022-12-16T16:15:31.871Z,44.63
2022-12-16T16:18:19.641Z,47.72
2022-12-16T16:21:05.021Z,47.20
2022-12-16T16:23:50.276Z,44.38
2022-12-16T16:26:38.585Z,45.70
2022-12-16T16:29:24.004Z,45.00
2022-12-16T16:32:09.255Z,48.13
2022-12-16T16:34:54.089Z,40.80
2022-12-16T16:37:40.040Z,40.97
2022-12-16T16:43:28.820Z,55.33
2022-12-16T16:46:14.349Z,56.33
2022-12-16T16:48:59.950Z,50.90
2022-12-16T16:51:45.861Z,54.58
2022-12-16T16:57:18.641Z,50.60
2022-12-16T17:00:07.983Z,45.20
2022-12-16T17:02:52.850Z,45.10
2022-12-16T17:05:37.977Z,48.93
2022-12-16T17:08:23.133Z,52.25
2022-12-16T17:11:07.978Z,52.50
2022-12-16T17:13:53.063Z,49.65
2022-12-16T17:16:37.895Z,48.22
2022-12-16T17:19:22.686Z,51.15
2022-12-16T17:22:07.393Z,43.67
2022-12-16T17:24:54.280Z,56.75
2022-12-16T17:27:42.566Z,51.60
2022-12-16T17:30:47.686Z,45.22
2022-12-16T17:33:34.495Z,52.63
2022-12-16T17:36:19.941Z,52.42
2022-12-16T17:39:05.247Z,48.65
2022-12-16T17:41:52.190Z,45.15
2022-12-16T17:47:22.808Z,44.65
2022-12-16T17:50:27.501Z,55.20
2022-12-16T17:53:17.062Z,55.38
2022-12-16T17:56:02.619Z,53.10
2022-12-16T17:58:52.476Z,52.22
2022-12-16T18:01:37.867Z,56.95
2022-12-16T18:04:23.591Z,73.32
2022-12-16T18:07:08.455Z,63.10
2022-12-16T18:09:53.846Z,59.83
2022-12-16T18:12:39.590Z,60.47
2022-12-16T18:18:09.724Z,52.05
2022-12-16T18:20:55.092Z,49.08
2022-12-16T18:23:40.042Z,58.45
2022-12-16T18:26:27.280Z,53.63
2022-12-16T18:29:12.112Z,57.30
2022-12-16T18:31:57.603Z,55.75
2022-12-16T18:34:42.453Z,56.05
2022-12-16T18:37:30.526Z,55.60
2022-12-16T18:40:17.138Z,57.30
2022-12-16T18:43:05.197Z,58.90
2022-12-16T18:45:50.209Z,59.55
2022-12-16T18:48:35.292Z,63.85
2022-12-16T18:51:20.172Z,54.70
2022-12-16T18:54:08.676Z,42.13
2022-12-16T18:56:53.326Z,57.70
2022-12-16T18:59:38.328Z,53.72
2022-12-16T19:02:23.154Z,64.30
2022-12-16T19:05:08.242Z,53.97
2022-12-16T19:07:53.099Z,52.85
2022-12-16T19:10:37.852Z,60.87
2022-12-16T19:13:22.858Z,148.32
2022-12-16T19:16:15.298Z,83.82
2022-12-16T19:19:00.847Z,67.18
2022-12-16T19:24:51.261Z,64.63
2022-12-16T19:27:37.043Z,64.05
2022-12-16T19:30:22.822Z,60.53
2022-12-16T19:35:52.482Z,58.60
2022-12-16T19:38:39.111Z,61.95
2022-12-16T19:41:24.006Z,71.78
2022-12-16T19:44:08.748Z,75.50
2022-12-16T19:46:56.234Z,69.25
2022-12-16T19:49:44.387Z,64.85
2022-12-16T19:52:29.905Z,64.43
2022-12-16T19:55:17.492Z,69.47
2022-12-16T19:58:10.121Z,66.20
2022-12-16T20:00:54.962Z,63.55
2022-12-16T20:03:41.909Z,74.38
2022-12-16T20:06:28.041Z,71.65
2022-12-16T20:09:14.398Z,73.55
2022-12-16T20:12:11.898Z,74.93
2022-12-16T20:14:56.677Z,74.82
2022-12-16T20:17:42.053Z,79.63
2022-12-16T20:20:27.323Z,76.20
2022-12-16T20:23:14.483Z,73.25
2022-12-16T20:25:59.241Z,70.72
2022-12-16T20:28:43.935Z,56.80
2022-12-16T20:31:28.829Z,80.32
2022-12-16T20:34:15.087Z,76.97
2022-12-16T20:37:00.856Z,71.72
2022-12-16T20:42:40.970Z,74.18
2022-12-16T20:45:26.213Z,56.63
2022-12-16T20:48:12.548Z,75.63
2022-12-16T20:50:57.199Z,78.30
2022-12-16T20:53:42.729Z,84.40
2022-12-16T20:56:27.767Z,70.05
2022-12-16T20:59:12.605Z,77.95
2022-12-16T21:02:22.192Z,75.57
2022-12-16T21:05:02.490Z,72.72
2022-12-16T21:07:47.505Z,84.85
2022-12-16T21:10:32.901Z,80.65
2022-12-16T21:13:28.429Z,70.70
2022-12-16T21:14:28.211Z,67.53
2022-12-16T21:16:16.210Z,52.10
2022-12-16T21:19:01.518Z,75.70
2022-12-16T21:21:46.410Z,80.50
2022-12-16T21:24:31.282Z,85.95
2022-12-16T21:27:16.635Z,77.30
2022-12-16T21:30:01.575Z,74.40
2022-12-16T21:32:59.907Z,74.82
2022-12-16T21:35:44.594Z,69.88
2022-12-16T21:38:30.526Z,63.22
2022-12-16T21:41:16.588Z,60.10
2022-12-16T21:44:01.507Z,63.63
2022-12-16T21:46:46.343Z,66.35
2022-12-16T21:49:31.106Z,73.20
2022-12-16T21:52:16.011Z,61.67
2022-12-16T21:55:00.851Z,45.22
2022-12-16T21:57:45.801Z,40.83
2022-12-16T22:00:31.519Z,56.47
2022-12-16T22:06:01.113Z,53.25
2022-12-16T22:08:46.147Z,59.87
2022-12-16T22:11:32.444Z,50.28
2022-12-16T22:14:25.235Z,54.85
2022-12-16T22:17:09.871Z,59.30
2022-12-16T22:19:56.187Z,65.88
2022-12-16T22:22:41.874Z,75.07
2022-12-16T22:25:27.103Z,86.82
2022-12-16T22:28:11.834Z,76.13
2022-12-16T22:30:56.823Z,52.70
2022-12-16T22:33:41.906Z,73.85
2022-12-16T22:36:27.661Z,63.60
2022-12-16T22:39:15.418Z,64.10
2022-12-16T22:42:00.974Z,73.90
2022-12-16T22:44:45.624Z,60.63
2022-12-16T22:47:30.581Z,58.88
2022-12-16T22:50:15.482Z,62.08
2022-12-16T22:53:00.484Z,62.90
2022-12-16T22:55:45.601Z,62.60
2022-12-16T22:58:31.418Z,65.85
2022-12-16T23:01:16.365Z,57.35
2022-12-16T23:04:01.317Z,61.33
2022-12-16T23:06:46.274Z,63.38
2022-12-16T23:09:31.076Z,65.82
2022-12-16T23:12:16.380Z,46.13
2022-12-16T23:15:01.241Z,68.72
2022-12-16T23:17:46.059Z,77.63
2022-12-16T23:20:31.007Z,75.13
2022-12-16T23:23:15.986Z,58.83
2022-12-16T23:26:00.956Z,62.65
2022-12-16T23:28:45.608Z,84.78
2022-12-16T23:31:30.692Z,65.63
2022-12-16T23:34:16.206Z,76.13
2022-12-16T23:37:01.258Z,60.45
2022-12-16T23:39:46.153Z,66.28
2022-12-16T23:42:30.914Z,61.47
2022-12-16T23:45:15.807Z,76.63
2022-12-16T23:48:00.689Z,89.73
2022-12-16T23:50:45.492Z,83.63
2022-12-16T23:53:30.851Z,43.17
2022-12-16T23:56:17.627Z,67.00
2022-12-16T23:59:03.498Z,63.33
